createdAt,value
2023-05-18T00:00:45.247Z,47.59
2023-05-18T00:05:50.193Z,47.97
2023-05-18T00:10:53.982Z,46.97
2023-05-18T00:15:57.615Z,46.77
2023-05-18T00:21:02.561Z,48.14
2023-05-18T00:26:06.127Z,47.14
2023-05-18T00:31:09.747Z,45.64
2023-05-18T00:36:15.026Z,45.95
2023-05-18T00:41:18.756Z,45.89
2023-05-18T00:46:22.344Z,45.35
2023-05-18T00:51:27.486Z,46.69
2023-05-18T00:56:34.474Z,45.73
2023-05-18T01:01:43.735Z,45.93
2023-05-18T01:06:49.200Z,46.44
2023-05-18T01:11:58.399Z,45.13
2023-05-18T01:17:10.641Z,45.35
2023-05-18T01:22:23.489Z,44.96
2023-05-18T01:27:28.839Z,44.41
2023-05-18T01:32:32.454Z,44.13
2023-05-18T01:37:36.047Z,44.11
2023-05-18T01:42:45.763Z,44.80
2023-05-18T01:47:50.122Z,44.01
2023-05-18T01:52:58.598Z,43.90
2023-05-18T01:58:04.079Z,44.05
2023-05-18T02:03:07.887Z,44.33
2023-05-18T02:08:11.913Z,43.37
2023-05-18T02:13:16.783Z,42.69
2023-05-18T02:18:22.442Z,42.62
2023-05-18T02:23:26.078Z,44.13
2023-05-18T02:28:31.077Z,43.94
2023-05-18T02:33:40.186Z,43.23
2023-05-18T02:38:44.903Z,44.00
2023-05-18T02:43:49.857Z,43.55
2023-05-18T02:48:53.420Z,43.55
2023-05-18T02:53:57.767Z,42.79
2023-05-18T02:59:02.924Z,43.95
2023-05-18T03:04:06.509Z,43.85
2023-05-18T03:09:10.189Z,42.74
2023-05-18T03:14:15.218Z,43.79
2023-05-18T03:19:18.881Z,42.98
2023-05-18T03:24:22.830Z,42.60
2023-05-18T03:29:29.921Z,43.45
2023-05-18T03:34:35.324Z,42.64
2023-05-18T03:39:38.844Z,42.16
2023-05-18T03:44:43.806Z,42.81
2023-05-18T03:49:47.420Z,42.41
2023-05-18T03:54:51.228Z,43.45
2023-05-18T03:59:56.450Z,43.44
2023-05-18T04:05:00.033Z,43.19
2023-05-18T04:10:03.610Z,43.12
2023-05-18T04:15:10.544Z,43.38
2023-05-18T04:20:14.981Z,43.19
2023-05-18T04:25:19.085Z,43.69
2023-05-18T04:30:24.281Z,42.60
2023-05-18T04:35:28.218Z,42.97
2023-05-18T04:40:34.398Z,42.81
2023-05-18T04:45:39.519Z,43.50
2023-05-18T04:50:43.413Z,44.06
2023-05-18T04:55:47.312Z,42.72
2023-05-18T05:00:52.299Z,43.86
2023-05-18T05:05:55.863Z,42.31
2023-05-18T05:10:59.439Z,43.24
2023-05-18T05:16:06.284Z,42.20
2023-05-18T05:21:10.645Z,43.09
2023-05-18T05:26:14.182Z,43.48
2023-05-18T05:31:19.199Z,42.52
2023-05-18T05:36:22.655Z,43.60
2023-05-18T05:41:26.194Z,43.90
2023-05-18T05:46:31.439Z,42.78
2023-05-18T05:51:35.044Z,42.52
2023-05-18T05:56:38.618Z,42.75
2023-05-18T06:01:43.586Z,42.49
2023-05-18T06:06:48.114Z,41.99
2023-05-18T06:11:53.098Z,42.84
2023-05-18T06:16:58.189Z,41.43
2023-05-18T06:22:01.797Z,42.80
2023-05-18T06:27:05.905Z,42.24
2023-05-18T06:32:11.048Z,42.74
2023-05-18T06:37:14.717Z,41.50
2023-05-18T06:42:18.249Z,41.50
2023-05-18T06:47:23.339Z,42.21
2023-05-18T06:52:27.293Z,41.88
2023-05-18T06:57:32.139Z,42.70
2023-05-18T07:02:37.147Z,42.82
2023-05-18T07:07:40.924Z,42.00
2023-05-18T07:12:44.528Z,43.10
2023-05-18T07:17:49.581Z,42.97
2023-05-18T07:22:55.244Z,43.31
2023-05-18T07:27:58.792Z,42.81
2023-05-18T07:33:03.884Z,43.43
2023-05-18T07:38:07.553Z,42.51
2023-05-18T07:43:11.392Z,42.56
2023-05-18T07:48:16.586Z,42.07
2023-05-18T07:53:20.162Z,42.24
2023-05-18T07:58:23.729Z,43.71
2023-05-18T08:03:29.436Z,42.57
2023-05-18T08:08:33.074Z,43.66
2023-05-18T08:13:36.716Z,42.71
2023-05-18T08:18:42.296Z,43.39
2023-05-18T08:23:45.857Z,43.53
2023-05-18T08:28:50.038Z,43.80
2023-05-18T08:33:54.962Z,42.87
2023-05-18T08:38:58.564Z,42.79
2023-05-18T08:44:05.269Z,42.53
2023-05-18T08:49:11.795Z,43.96
2023-05-18T08:54:18.985Z,43.85
2023-05-18T08:59:25.509Z,42.91
2023-05-18T09:04:32.135Z,44.33
2023-05-18T09:09:36.425Z,42.79
2023-05-18T09:14:40.364Z,43.14
2023-05-18T09:19:45.466Z,43.48
2023-05-18T09:24:49.780Z,43.38
2023-05-18T09:29:54.498Z,44.11
2023-05-18T09:35:06.497Z,44.52
2023-05-18T09:40:10.669Z,43.73
2023-05-18T09:45:19.569Z,42.51
2023-05-18T09:50:25.139Z,42.86
2023-05-18T09:55:28.885Z,42.86
2023-05-18T10:00:33.097Z,43.22
2023-05-18T10:05:39.838Z,44.09
2023-05-18T10:10:45.859Z,44.30
2023-05-18T10:15:51.210Z,43.33
2023-05-18T10:20:59.910Z,44.04
2023-05-18T10:26:06.493Z,42.66
2023-05-18T10:31:10.598Z,42.89
2023-05-18T10:36:16.210Z,44.22
2023-05-18T10:41:20.340Z,43.89
2023-05-18T10:46:27.307Z,43.51
2023-05-18T10:51:33.252Z,44.03
2023-05-18T10:56:37.883Z,43.50
2023-05-18T11:01:42.304Z,43.42
2023-05-18T11:06:55.961Z,43.71
2023-05-18T11:12:00.190Z,43.78
2023-05-18T11:17:20.832Z,44.00
2023-05-18T11:22:25.776Z,44.09
2023-05-18T11:27:30.385Z,43.40
2023-05-18T11:32:34.512Z,44.21
2023-05-18T11:37:51.686Z,44.34
2023-05-18T11:42:59.684Z,43.63
2023-05-18T11:48:04.080Z,44.83
2023-05-18T11:53:09.176Z,43.61
2023-05-18T11:58:14.587Z,43.12
2023-05-18T12:03:18.597Z,43.11
2023-05-18T12:08:29.510Z,43.53
2023-05-18T12:13:33.417Z,44.00
2023-05-18T12:18:38.729Z,44.35
2023-05-18T12:23:43.739Z,44.29
2023-05-18T12:28:47.756Z,43.81
2023-05-18T12:33:51.991Z,43.82
2023-05-18T12:38:56.889Z,44.59
2023-05-18T12:44:00.458Z,44.62
2023-05-18T12:49:06.065Z,44.74
2023-05-18T12:54:11.030Z,45.96
2023-05-18T12:59:19.435Z,45.71
2023-05-18T13:04:24.377Z,44.76
2023-05-18T13:09:29.353Z,44.76
2023-05-18T13:14:39.522Z,44.92
2023-05-18T13:19:43.036Z,45.27
2023-05-18T13:24:47.958Z,45.51
2023-05-18T13:29:51.549Z,47.08
2023-05-18T13:34:55.115Z,45.74
2023-05-18T13:40:00.232Z,47.25
2023-05-18T13:45:03.813Z,46.22
2023-05-18T13:50:07.935Z,45.97
2023-05-18T13:55:12.930Z,47.22
2023-05-18T14:00:17.634Z,46.37
2023-05-18T14:05:21.283Z,46.16
2023-05-18T14:10:26.234Z,46.48
2023-05-18T14:15:29.728Z,47.03
2023-05-18T14:20:34.188Z,46.37
2023-05-18T14:25:39.303Z,46.79
2023-05-18T14:30:42.900Z,47.17
2023-05-18T14:35:46.433Z,48.27
2023-05-18T14:40:51.458Z,46.49
2023-05-18T14:46:07.381Z,47.32
2023-05-18T14:51:12.096Z,47.74
2023-05-18T14:56:17.186Z,47.75
2023-05-18T15:01:20.773Z,47.93
2023-05-18T15:06:24.374Z,47.97
2023-05-18T15:11:29.427Z,48.36
2023-05-18T15:16:33.046Z,47.50
2023-05-18T15:21:36.633Z,47.92
2023-05-18T15:26:42.221Z,46.88
2023-05-18T15:31:47.286Z,47.77
2023-05-18T15:36:50.917Z,47.99
2023-05-18T15:41:56.549Z,47.05
2023-05-18T15:47:00.155Z,47.78
2023-05-18T15:52:03.736Z,47.02
2023-05-18T15:57:09.114Z,47.80
2023-05-18T16:02:12.749Z,47.38
2023-05-18T16:07:16.268Z,48.19
2023-05-18T16:12:21.286Z,47.43
2023-05-18T16:17:25.025Z,47.79
2023-05-18T16:22:28.590Z,48.43
2023-05-18T16:27:33.730Z,47.71
2023-05-18T16:32:37.301Z,47.80
2023-05-18T16:37:40.930Z,49.00
2023-05-18T16:42:47.646Z,48.47
2023-05-18T16:47:51.282Z,47.88
2023-05-18T16:52:54.955Z,48.12
2023-05-18T16:58:00.228Z,47.99
2023-05-18T17:03:04.514Z,48.93
2023-05-18T17:08:07.984Z,49.49
2023-05-18T17:13:12.936Z,48.76
2023-05-18T17:18:16.644Z,49.33
2023-05-18T17:23:20.250Z,48.77
2023-05-18T17:28:25.247Z,49.15
2023-05-18T17:33:28.794Z,49.70
2023-05-18T17:38:32.347Z,49.63
2023-05-18T17:43:37.852Z,48.63
2023-05-18T17:48:41.369Z,48.87
2023-05-18T17:53:45.489Z,49.19
2023-05-18T17:58:50.456Z,50.17
2023-05-18T18:03:54.141Z,49.51
2023-05-18T18:08:59.207Z,50.17
2023-05-18T18:14:04.301Z,49.00
2023-05-18T18:19:08.850Z,50.55
2023-05-18T18:24:14.202Z,49.96
2023-05-18T18:29:19.382Z,49.68
2023-05-18T18:34:22.986Z,50.04
2023-05-18T18:39:26.633Z,50.37
2023-05-18T18:44:31.626Z,49.75
2023-05-18T18:49:35.172Z,50.79
2023-05-18T18:54:38.798Z,51.01
2023-05-18T18:59:43.801Z,51.01
2023-05-18T19:04:47.416Z,50.88
2023-05-18T19:09:51.109Z,50.93
2023-05-18T19:14:56.081Z,50.76
2023-05-18T19:19:59.646Z,50.74
2023-05-18T19:25:03.692Z,50.30
2023-05-18T19:30:11.159Z,50.23
2023-05-18T19:35:15.288Z,51.07
2023-05-18T19:40:19.250Z,50.80
2023-05-18T19:45:24.270Z,50.80
2023-05-18T19:50:27.858Z,51.16
2023-05-18T19:55:31.964Z,51.16
2023-05-18T20:00:38.160Z,50.33
2023-05-18T20:05:43.933Z,50.66
2023-05-18T20:10:47.886Z,50.76
2023-05-18T20:15:52.792Z,51.28
2023-05-18T20:20:57.776Z,50.76
2023-05-18T20:26:01.322Z,51.50
2023-05-18T20:31:06.409Z,50.77
2023-05-18T20:36:10.116Z,50.36
2023-05-18T20:41:13.645Z,50.32
2023-05-18T20:46:23.329Z,50.50
2023-05-18T20:51:28.364Z,50.82
2023-05-18T20:56:31.962Z,50.51
2023-05-18T21:01:39.600Z,50.81
2023-05-18T21:06:44.242Z,51.41
2023-05-18T21:11:47.754Z,51.22
2023-05-18T21:16:52.962Z,50.72
2023-05-18T21:21:56.530Z,51.37
2023-05-18T21:27:00.297Z,51.37
2023-05-18T21:32:05.566Z,51.84
2023-05-18T21:37:09.417Z,51.93
2023-05-18T21:42:12.925Z,51.06
2023-05-18T21:47:17.901Z,51.48
2023-05-18T21:52:21.480Z,51.06
2023-05-18T21:57:25.007Z,51.81
2023-05-18T22:02:29.981Z,51.05
2023-05-18T22:07:33.661Z,52.02
2023-05-18T22:12:38.059Z,51.83
2023-05-18T22:17:43.051Z,50.86
2023-05-18T22:22:46.651Z,51.06
2023-05-18T22:27:50.252Z,50.79
2023-05-18T22:32:55.236Z,52.08
2023-05-18T22:37:58.835Z,51.28
2023-05-18T22:43:02.367Z,51.96
2023-05-18T22:48:07.567Z,51.92
2023-05-18T22:53:12.242Z,51.37
2023-05-18T22:58:15.810Z,50.73
2023-05-18T23:03:20.853Z,50.54
2023-05-18T23:08:24.784Z,51.20
2023-05-18T23:13:28.328Z,50.80
2023-05-18T23:18:33.531Z,50.93
2023-05-18T23:23:37.159Z,50.58
2023-05-18T23:28:40.736Z,51.51
2023-05-18T23:33:46.474Z,50.45
2023-05-18T23:38:50.579Z,51.42
2023-05-18T23:43:54.752Z,50.46
2023-05-18T23:49:00.526Z,50.84
2023-05-18T23:54:07.479Z,49.49
2023-05-18T23:59:11.742Z,50.19
